createdAt,value
2022-08-08T00:00:59.911Z,75.30
2022-08-08T00:02:59.384Z,77.10
2022-08-08T00:05:44.256Z,76.60
2022-08-08T00:08:30.977Z,76.10
2022-08-08T00:11:13.227Z,78.40
2022-08-08T00:14:17.641Z,76.70
2022-08-08T00:16:52.621Z,76.70
2022-08-08T00:19:29.570Z,77.70
2022-08-08T00:22:10.221Z,77.50
2022-08-08T00:24:46.370Z,78.00
2022-08-08T00:27:17.475Z,78.60
2022-08-08T00:29:56.604Z,77.20
2022-08-08T00:32:35.055Z,78.40
2022-08-08T00:35:37.649Z,76.60
2022-08-08T00:38:44.582Z,77.20
2022-08-08T00:42:07.579Z,77.40
2022-08-08T00:45:34.700Z,78.30
2022-08-08T00:48:55.168Z,76.50
2022-08-08T00:52:06.834Z,79.00
2022-08-08T00:55:05.787Z,79.10
2022-08-08T00:58:30.762Z,81.00
2022-08-08T01:01:19.627Z,80.30
2022-08-08T01:04:43.944Z,80.20
2022-08-08T01:07:57.176Z,80.50
2022-08-08T01:11:24.029Z,81.20
2022-08-08T01:14:53.304Z,80.90
2022-08-08T01:18:16.311Z,81.40
2022-08-08T01:22:10.261Z,82.00
2022-08-08T01:25:17.894Z,82.70
2022-08-08T01:28:18.706Z,81.90
2022-08-08T01:32:12.889Z,81.90
2022-08-08T01:35:02.302Z,82.50
2022-08-08T01:38:11.660Z,83.00
2022-08-08T01:40:52.303Z,82.50
2022-08-08T01:43:44.265Z,83.20
2022-08-08T01:46:40.600Z,83.70
2022-08-08T01:49:22.932Z,83.60
2022-08-08T01:54:07.450Z,84.40
2022-08-08T01:56:26.297Z,83.50
2022-08-08T01:58:46.291Z,85.30
2022-08-08T02:01:23.437Z,85.10
2022-08-08T02:04:04.852Z,85.00
2022-08-08T02:06:55.783Z,85.00
2022-08-08T02:10:01.620Z,85.60
2022-08-08T02:12:49.189Z,84.90
2022-08-08T02:15:34.616Z,85.90
2022-08-08T02:18:11.695Z,85.60
2022-08-08T02:21:13.419Z,86.40
2022-08-08T02:23:54.556Z,86.70
2022-08-08T02:26:33.184Z,86.00
2022-08-08T02:29:22.034Z,87.00
2022-08-08T02:32:41.453Z,86.70
2022-08-08T02:36:05.151Z,86.70
2022-08-08T02:38:56.775Z,87.20
2022-08-08T02:42:05.821Z,86.90
2022-08-08T02:45:23.067Z,86.60
2022-08-08T02:48:45.414Z,87.20
2022-08-08T02:51:59.058Z,87.00
2022-08-08T02:55:02.090Z,88.00
2022-08-08T02:58:18.986Z,88.60
2022-08-08T03:01:50.851Z,88.30
2022-08-08T03:05:32.798Z,88.50
2022-08-08T03:09:16.279Z,88.70
2022-08-08T03:13:02.081Z,89.00
2022-08-08T03:16:09.556Z,89.40
2022-08-08T03:18:52.947Z,90.00
2022-08-08T03:21:26.971Z,89.80
2022-08-08T03:24:10.412Z,89.90
2022-08-08T03:26:45.827Z,90.50
2022-08-08T03:29:38.089Z,90.30
2022-08-08T03:32:28.994Z,90.60
2022-08-08T03:34:58.665Z,90.60
2022-08-08T03:38:53.365Z,90.60
2022-08-08T03:40:29.758Z,90.40
2022-08-08T03:43:15.647Z,90.90
2022-08-08T03:46:02.979Z,90.80
2022-08-08T03:49:09.168Z,90.70
2022-08-08T03:51:40.240Z,91.10
2022-08-08T03:54:08.383Z,91.00
2022-08-08T03:56:38.081Z,90.90
2022-08-08T03:59:06.890Z,91.50
2022-08-08T04:02:31.818Z,91.40
2022-08-08T04:04:39.870Z,91.50
2022-08-08T04:07:10.448Z,91.40
2022-08-08T04:10:00.561Z,91.40
2022-08-08T04:12:35.982Z,91.50
2022-08-08T04:15:06.216Z,91.60
2022-08-08T04:17:46.143Z,91.60
2022-08-08T04:20:28.308Z,91.50
2022-08-08T04:22:58.171Z,91.80
2022-08-08T04:25:29.858Z,91.80
2022-08-08T04:28:03.382Z,91.70
2022-08-08T04:30:49.166Z,92.10
2022-08-08T04:33:17.212Z,91.70
2022-08-08T04:35:51.151Z,92.20
2022-08-08T04:38:21.207Z,92.40
2022-08-08T04:40:53.491Z,92.20
2022-08-08T04:43:31.244Z,92.70
2022-08-08T04:46:14.682Z,92.60
2022-08-08T04:48:43.381Z,92.50
2022-08-08T04:51:12.011Z,92.70
2022-08-08T04:54:30.284Z,92.60
2022-08-08T04:56:33.854Z,92.40
2022-08-08T04:59:03.334Z,92.80
2022-08-08T05:01:35.545Z,93.10
2022-08-08T05:04:16.007Z,93.30
2022-08-08T05:06:47.302Z,93.20
2022-08-08T05:09:18.909Z,93.30
2022-08-08T05:11:56.554Z,93.50
2022-08-08T05:14:26.892Z,93.60
2022-08-08T05:17:01.160Z,93.80
2022-08-08T05:20:09.243Z,94.00
2022-08-08T05:22:18.360Z,94.40
2022-08-08T05:24:48.529Z,94.50
2022-08-08T05:27:17.517Z,94.50
2022-08-08T05:29:50.236Z,94.70
2022-08-08T05:32:24.640Z,94.80
2022-08-08T05:35:01.829Z,95.00
2022-08-08T05:37:52.060Z,94.90
2022-08-08T05:40:27.938Z,95.40
2022-08-08T05:43:38.761Z,95.80
2022-08-08T05:46:03.028Z,95.90
2022-08-08T05:48:34.680Z,96.00
2022-08-08T05:51:15.385Z,96.30
2022-08-08T05:53:56.140Z,96.40
2022-08-08T05:56:42.471Z,95.70
2022-08-08T06:00:00.866Z,96.10
2022-08-08T06:02:41.046Z,95.80
2022-08-08T06:05:33.646Z,93.60
2022-08-08T06:08:09.660Z,92.20
2022-08-08T06:10:50.332Z,86.70
2022-08-08T06:13:23.315Z,86.40
2022-08-08T06:15:54.950Z,85.50
2022-08-08T06:18:27.315Z,82.70
2022-08-08T06:20:57.748Z,79.10
2022-08-08T06:23:53.371Z,75.60
2022-08-08T06:26:43.361Z,74.90
2022-08-08T06:29:26.646Z,73.20
2022-08-08T06:32:09.786Z,68.50
2022-08-08T06:34:56.605Z,70.30
2022-08-08T06:37:38.030Z,63.00
2022-08-08T06:40:16.105Z,62.70
2022-08-08T06:42:53.875Z,61.30
2022-08-08T06:45:23.950Z,58.30
2022-08-08T06:48:01.300Z,55.30
2022-08-08T06:50:33.579Z,56.50
2022-08-08T06:53:14.270Z,53.70
2022-08-08T06:56:00.472Z,51.10
2022-08-08T06:58:33.442Z,53.70
2022-08-08T07:01:24.490Z,48.00
2022-08-08T07:04:40.476Z,46.20
2022-08-08T07:06:56.006Z,47.10
2022-08-08T07:09:45.324Z,45.20
2022-08-08T07:12:30.552Z,47.50
2022-08-08T07:15:06.228Z,48.10
2022-08-08T07:18:01.569Z,46.60
2022-08-08T07:20:45.892Z,46.70
2022-08-08T07:23:25.245Z,45.20
2022-08-08T07:25:55.563Z,44.10
2022-08-08T07:28:24.931Z,43.70
2022-08-08T07:31:00.726Z,42.80
2022-08-08T07:33:37.760Z,44.10
2022-08-08T07:36:09.171Z,44.30
2022-08-08T07:38:39.174Z,44.30
2022-08-08T07:41:23.660Z,40.80
2022-08-08T07:43:58.814Z,41.40
2022-08-08T07:46:30.921Z,41.20
2022-08-08T07:48:59.200Z,42.50
2022-08-08T07:51:44.880Z,41.30
2022-08-08T07:54:29.122Z,38.00
2022-08-08T07:57:08.870Z,36.90
2022-08-08T07:59:49.040Z,39.20
2022-08-08T08:02:35.398Z,38.70
2022-08-08T08:05:15.095Z,39.60
2022-08-08T08:07:45.872Z,38.20
2022-08-08T08:10:30.444Z,39.00
2022-08-08T08:13:25.989Z,39.30
2022-08-08T08:16:11.382Z,41.30
2022-08-08T08:18:51.677Z,37.20
2022-08-08T08:21:44.098Z,37.10
2022-08-08T08:24:15.632Z,38.70
2022-08-08T08:26:47.142Z,38.20
2022-08-08T08:29:20.883Z,37.00
2022-08-08T08:31:57.521Z,37.90
2022-08-08T08:34:31.872Z,37.30
2022-08-08T08:37:00.835Z,37.70
2022-08-08T08:40:00.119Z,35.60
2022-08-08T08:42:31.409Z,34.80
2022-08-08T08:45:10.316Z,35.70
2022-08-08T08:47:53.183Z,36.50
2022-08-08T08:50:32.538Z,35.10
2022-08-08T08:53:54.837Z,35.40
2022-08-08T08:56:02.620Z,36.30
2022-08-08T08:58:37.602Z,37.40
2022-08-08T09:01:10.242Z,34.40
2022-08-08T09:03:45.903Z,33.70
2022-08-08T09:06:28.485Z,34.20
2022-08-08T09:09:07.126Z,33.40
2022-08-08T09:11:47.281Z,33.80
2022-08-08T09:14:27.548Z,33.90
2022-08-08T09:16:56.530Z,31.80
2022-08-08T09:22:02.626Z,33.20
2022-08-08T09:22:19.655Z,33.30
2022-08-08T09:24:58.500Z,31.60
2022-08-08T09:27:55.742Z,31.80
2022-08-08T09:30:20.035Z,33.20
2022-08-08T09:33:13.227Z,32.60
2022-08-08T09:35:49.130Z,30.60
2022-08-08T09:38:32.921Z,30.10
2022-08-08T09:41:06.642Z,31.10
2022-08-08T09:44:05.026Z,30.70
2022-08-08T09:46:38.792Z,29.70
2022-08-08T09:49:41.468Z,29.60
2022-08-08T09:52:07.617Z,30.60
2022-08-08T09:54:44.559Z,29.20
2022-08-08T09:57:19.446Z,31.10
2022-08-08T10:00:28.631Z,31.20
2022-08-08T10:02:46.060Z,32.30
2022-08-08T10:05:22.810Z,31.00
2022-08-08T10:08:00.537Z,30.20
2022-08-08T10:10:31.729Z,31.70
2022-08-08T10:13:14.258Z,32.40
2022-08-08T10:16:00.534Z,30.00
2022-08-08T10:18:33.765Z,30.20
2022-08-08T10:21:23.251Z,30.20
2022-08-08T10:23:58.570Z,29.80
2022-08-08T10:26:52.240Z,30.00
2022-08-08T10:29:25.139Z,31.10
2022-08-08T10:32:16.267Z,30.00
2022-08-08T10:35:01.477Z,31.90
2022-08-08T10:37:34.568Z,29.80
2022-08-08T10:40:16.220Z,30.30
2022-08-08T10:42:48.938Z,33.70
2022-08-08T10:45:17.645Z,31.30
2022-08-08T10:47:55.642Z,30.10
2022-08-08T10:50:33.751Z,29.80
2022-08-08T10:53:04.809Z,30.40
2022-08-08T10:55:46.652Z,30.40
2022-08-08T10:58:16.012Z,32.50
2022-08-08T11:00:53.136Z,33.00
2022-08-08T11:04:01.176Z,33.20
2022-08-08T11:06:34.234Z,34.00
2022-08-08T11:09:15.475Z,32.00
2022-08-08T11:12:04.771Z,31.50
2022-08-08T11:14:53.240Z,32.40
2022-08-08T11:18:00.335Z,33.20
2022-08-08T11:20:14.878Z,35.80
2022-08-08T11:22:52.201Z,34.20
2022-08-08T11:25:52.261Z,33.90
2022-08-08T11:28:14.826Z,34.10
2022-08-08T11:30:50.520Z,34.80
2022-08-08T11:33:52.868Z,38.40
2022-08-08T11:36:15.969Z,38.00
2022-08-08T11:38:55.339Z,37.70
2022-08-08T11:41:25.038Z,36.40
2022-08-08T11:43:58.394Z,36.10
2022-08-08T11:46:30.293Z,36.60
2022-08-08T11:49:04.180Z,36.00
2022-08-08T11:51:40.219Z,36.70
2022-08-08T11:54:33.270Z,36.60
2022-08-08T11:57:16.946Z,36.60
2022-08-08T12:00:01.827Z,37.00
2022-08-08T12:02:33.869Z,38.50
2022-08-08T12:05:07.907Z,36.50
2022-08-08T12:07:52.327Z,39.00
2022-08-08T12:10:24.016Z,37.00
2022-08-08T12:13:04.371Z,36.60
2022-08-08T12:15:42.613Z,36.70
2022-08-08T12:18:21.191Z,37.90
2022-08-08T12:20:54.787Z,37.60
2022-08-08T12:23:43.003Z,38.30
2022-08-08T12:26:28.246Z,36.20
2022-08-08T12:29:25.866Z,37.20
2022-08-08T12:32:13.390Z,36.10
2022-08-08T12:34:53.760Z,36.40
2022-08-08T12:37:39.981Z,38.00
2022-08-08T12:40:23.007Z,39.40
2022-08-08T12:42:55.573Z,38.40
2022-08-08T12:45:59.745Z,37.80
2022-08-08T12:48:36.215Z,36.10
2022-08-08T12:51:11.179Z,35.70
2022-08-08T12:53:59.090Z,35.50
2022-08-08T12:56:36.128Z,38.00
2022-08-08T12:59:16.535Z,37.20
2022-08-08T13:01:56.601Z,35.50
2022-08-08T13:04:27.972Z,36.70
2022-08-08T13:07:02.724Z,35.80
2022-08-08T13:09:57.484Z,35.40
2022-08-08T13:12:29.907Z,37.90
2022-08-08T13:15:03.571Z,36.90
2022-08-08T13:18:08.448Z,37.40
2022-08-08T13:20:24.045Z,37.10
2022-08-08T13:23:29.943Z,37.10
2022-08-08T13:25:51.031Z,37.30
2022-08-08T13:28:32.789Z,36.80
2022-08-08T13:31:03.872Z,35.50
2022-08-08T13:33:42.674Z,34.70
2022-08-08T13:36:11.899Z,35.00
2022-08-08T13:38:40.957Z,36.80
2022-08-08T13:41:16.959Z,35.80
2022-08-08T13:43:47.164Z,34.30
2022-08-08T13:46:26.846Z,36.30
2022-08-08T13:50:33.193Z,35.40
2022-08-08T13:51:55.522Z,35.00
2022-08-08T13:54:31.473Z,35.70
2022-08-08T13:57:08.753Z,35.00
2022-08-08T13:59:44.373Z,35.40
2022-08-08T14:02:21.231Z,35.90
2022-08-08T14:05:04.997Z,35.50
2022-08-08T14:07:51.877Z,35.10
2022-08-08T14:10:32.576Z,35.30
2022-08-08T14:13:09.878Z,35.30
2022-08-08T14:15:50.190Z,34.60
2022-08-08T14:18:37.030Z,34.70
2022-08-08T14:21:20.955Z,35.20
2022-08-08T14:24:04.795Z,35.40
2022-08-08T14:26:43.001Z,35.60
2022-08-08T14:29:30.397Z,35.60
2022-08-08T14:32:10.720Z,36.40
2022-08-08T14:34:43.236Z,35.50
2022-08-08T14:37:13.095Z,35.70
2022-08-08T14:39:48.276Z,35.10
2022-08-08T14:42:27.209Z,36.00
2022-08-08T14:45:00.334Z,35.80
2022-08-08T14:47:30.325Z,35.90
2022-08-08T14:50:16.104Z,35.80
2022-08-08T14:52:49.994Z,35.40
2022-08-08T14:55:22.497Z,35.20
2022-08-08T14:58:11.262Z,34.80
2022-08-08T15:00:44.372Z,35.60
2022-08-08T15:03:15.646Z,35.80
2022-08-08T15:05:53.906Z,36.40
2022-08-08T15:08:35.226Z,36.70
2022-08-08T15:11:09.369Z,35.30
2022-08-08T15:14:01.212Z,35.30
2022-08-08T15:16:29.845Z,35.90
2022-08-08T15:19:04.318Z,35.40
2022-08-08T15:21:34.650Z,36.20
2022-08-08T15:24:12.845Z,36.30
2022-08-08T15:26:46.679Z,36.50
2022-08-08T15:29:22.533Z,35.70
2022-08-08T15:32:02.844Z,36.60
2022-08-08T15:34:41.198Z,35.90
2022-08-08T15:37:10.895Z,36.70
2022-08-08T15:39:41.369Z,36.30
2022-08-08T15:42:31.446Z,36.60
2022-08-08T15:45:01.561Z,36.40
2022-08-08T15:47:31.216Z,37.00
2022-08-08T15:50:00.476Z,36.40
2022-08-08T15:52:34.190Z,36.20
2022-08-08T15:55:02.602Z,36.80
2022-08-08T15:57:35.660Z,36.70
2022-08-08T16:00:25.863Z,36.50
2022-08-08T16:02:57.992Z,36.80
2022-08-08T16:05:35.857Z,35.60
2022-08-08T16:08:20.102Z,36.20
2022-08-08T16:13:05.367Z,35.90
2022-08-08T16:13:46.442Z,36.10
2022-08-08T16:16:17.240Z,36.00
2022-08-08T16:18:56.188Z,36.00
2022-08-08T16:21:28.974Z,36.10
2022-08-08T16:24:00.726Z,36.40
2022-08-08T16:26:33.713Z,36.40
2022-08-08T16:29:09.447Z,35.30
2022-08-08T16:31:42.036Z,36.30
2022-08-08T16:34:18.496Z,35.80
2022-08-08T16:36:50.605Z,35.70
2022-08-08T16:40:00.954Z,36.00
2022-08-08T16:42:17.855Z,36.20
2022-08-08T16:44:54.664Z,36.60
2022-08-08T16:47:40.162Z,35.90
2022-08-08T16:50:15.115Z,37.10
2022-08-08T16:55:23.320Z,37.10
2022-08-08T16:55:56.044Z,37.00
2022-08-08T16:58:25.333Z,37.40
2022-08-08T17:00:54.595Z,36.80
2022-08-08T17:03:24.950Z,37.40
2022-08-08T17:06:03.242Z,36.70
2022-08-08T17:08:31.767Z,36.70
2022-08-08T17:11:10.966Z,36.60
2022-08-08T17:13:49.687Z,37.50
2022-08-08T17:16:24.440Z,38.20
2022-08-08T17:18:53.420Z,37.00
2022-08-08T17:21:21.937Z,38.00
2022-08-08T17:24:00.526Z,38.00
2022-08-08T17:26:32.602Z,37.40
2022-08-08T17:29:03.966Z,38.00
2022-08-08T17:31:45.573Z,37.20
2022-08-08T17:34:49.150Z,37.80
2022-08-08T17:37:09.431Z,38.10
2022-08-08T17:40:03.245Z,39.80
2022-08-08T17:42:30.435Z,40.20
2022-08-08T17:44:58.710Z,38.10
2022-08-08T17:47:28.412Z,39.00
2022-08-08T17:50:08.170Z,41.30
2022-08-08T17:52:38.325Z,42.30
2022-08-08T17:55:09.273Z,42.70
2022-08-08T17:57:58.049Z,44.30
2022-08-08T18:00:30.674Z,45.90
2022-08-08T18:03:07.272Z,44.90
2022-08-08T18:05:48.638Z,45.70
2022-08-08T18:08:25.186Z,47.20
2022-08-08T18:11:14.388Z,47.60
2022-08-08T18:13:47.074Z,47.50
2022-08-08T18:16:20.758Z,47.50
2022-08-08T18:18:55.967Z,47.80
2022-08-08T18:21:59.146Z,47.70
2022-08-08T18:24:19.435Z,48.20
2022-08-08T18:26:54.671Z,47.80
2022-08-08T18:29:29.766Z,49.40
2022-08-08T18:32:03.728Z,51.60
2022-08-08T18:34:33.476Z,52.20
2022-08-08T18:37:07.939Z,51.80
2022-08-08T18:39:37.698Z,51.00
2022-08-08T18:42:13.710Z,51.10
2022-08-08T18:44:53.061Z,50.80
2022-08-08T18:47:25.286Z,51.00
2022-08-08T18:49:58.240Z,50.80
2022-08-08T18:52:29.998Z,51.30
2022-08-08T18:55:09.182Z,51.20
2022-08-08T18:57:41.077Z,51.80
2022-08-08T19:00:15.740Z,52.20
2022-08-08T19:02:48.449Z,53.10
2022-08-08T19:05:24.371Z,52.60
2022-08-08T19:08:00.561Z,52.50
2022-08-08T19:10:30.512Z,52.40
2022-08-08T19:13:00.104Z,52.70
2022-08-08T19:15:33.913Z,53.60
2022-08-08T19:18:30.874Z,53.20
2022-08-08T19:20:52.030Z,52.40
2022-08-08T19:23:21.783Z,52.90
2022-08-08T19:26:27.062Z,53.10
2022-08-08T19:28:41.346Z,54.10
2022-08-08T19:31:13.021Z,54.10
2022-08-08T19:34:04.643Z,53.90
2022-08-08T19:36:34.862Z,54.00
2022-08-08T19:39:03.055Z,54.20
2022-08-08T19:41:33.972Z,54.20
2022-08-08T19:44:03.776Z,54.30
2022-08-08T19:46:33.942Z,54.60
2022-08-08T19:49:02.973Z,54.90
2022-08-08T19:51:34.720Z,54.90
2022-08-08T19:54:09.957Z,55.50
2022-08-08T19:56:39.736Z,55.70
2022-08-08T19:59:10.086Z,55.70
2022-08-08T20:02:01.625Z,56.50
2022-08-08T20:04:30.058Z,56.80
2022-08-08T20:07:05.545Z,57.00
2022-08-08T20:09:55.888Z,57.10
2022-08-08T20:12:32.361Z,57.90
2022-08-08T20:15:14.881Z,58.50
2022-08-08T20:17:48.547Z,58.50
2022-08-08T20:20:20.717Z,58.60
2022-08-08T20:22:53.961Z,58.50
2022-08-08T20:25:29.999Z,58.90
2022-08-08T20:28:06.816Z,58.90
2022-08-08T20:30:55.685Z,58.90
2022-08-08T20:35:57.897Z,59.20
2022-08-08T20:38:32.860Z,59.80
2022-08-08T20:41:05.977Z,59.70
2022-08-08T20:43:49.740Z,60.20
2022-08-08T20:46:25.317Z,60.30
2022-08-08T20:48:58.417Z,60.40
2022-08-08T20:51:31.586Z,60.80
2022-08-08T20:54:04.895Z,61.40
2022-08-08T20:57:04.545Z,61.10
2022-08-08T20:59:27.915Z,61.50
2022-08-08T21:02:06.052Z,62.20
2022-08-08T21:04:37.389Z,62.60
2022-08-08T21:07:08.141Z,62.20
2022-08-08T21:10:01.809Z,62.70
2022-08-08T21:12:32.387Z,62.30
2022-08-08T21:15:07.117Z,63.50
2022-08-08T21:17:37.520Z,64.00
2022-08-08T21:20:09.855Z,64.20
2022-08-08T21:22:38.566Z,64.30
2022-08-08T21:25:10.510Z,65.30
2022-08-08T21:28:09.702Z,64.70
2022-08-08T21:30:30.178Z,64.80
2022-08-08T21:32:58.393Z,64.70
2022-08-08T21:36:13.275Z,63.20
2022-08-08T21:38:18.281Z,65.80
2022-08-08T21:40:56.073Z,64.40
2022-08-08T21:43:33.123Z,64.70
2022-08-08T21:48:07.782Z,63.90
2022-08-08T21:48:52.073Z,64.10
2022-08-08T21:54:16.740Z,64.30
2022-08-08T21:54:32.400Z,64.00
2022-08-08T21:57:02.727Z,63.10
2022-08-08T22:00:01.511Z,61.30
2022-08-08T22:02:23.570Z,60.10
2022-08-08T22:04:56.082Z,62.20
2022-08-08T22:07:39.641Z,61.90
2022-08-08T22:10:18.287Z,62.20
2022-08-08T22:13:17.241Z,61.30
2022-08-08T22:15:59.439Z,62.00
2022-08-08T22:18:30.804Z,62.50
2022-08-08T22:21:01.560Z,62.00
2022-08-08T22:23:51.027Z,61.30
2022-08-08T22:26:28.968Z,61.10
2022-08-08T22:29:13.226Z,62.40
2022-08-08T22:31:58.599Z,61.10
2022-08-08T22:34:31.413Z,62.10
2022-08-08T22:36:59.686Z,61.70
2022-08-08T22:39:39.507Z,60.50
2022-08-08T22:42:27.391Z,60.60
2022-08-08T22:44:59.764Z,60.00
2022-08-08T22:47:29.338Z,59.70
2022-08-08T22:50:26.368Z,60.00
2022-08-08T22:54:15.638Z,59.90
2022-08-08T22:55:58.453Z,59.90
2022-08-08T22:58:32.871Z,59.80
2022-08-08T23:01:01.789Z,60.50
2022-08-08T23:03:53.264Z,61.20
2022-08-08T23:06:23.490Z,62.80
2022-08-08T23:08:55.563Z,61.80
2022-08-08T23:11:57.978Z,61.90
2022-08-08T23:14:18.008Z,61.50
2022-08-08T23:16:57.860Z,63.20
2022-08-08T23:19:30.758Z,63.00
2022-08-08T23:22:02.050Z,63.00
2022-08-08T23:24:36.100Z,61.60
2022-08-08T23:27:07.208Z,62.80
2022-08-08T23:29:35.287Z,65.50
2022-08-08T23:32:04.668Z,64.00
2022-08-08T23:34:34.085Z,65.00
2022-08-08T23:37:02.873Z,65.60
2022-08-08T23:39:41.851Z,63.00
2022-08-08T23:42:21.443Z,66.20
2022-08-08T23:44:50.232Z,64.60
2022-08-08T23:49:07.961Z,63.70
2022-08-08T23:50:30.152Z,65.90
2022-08-08T23:53:03.646Z,65.30
2022-08-08T23:55:34.194Z,66.20
2022-08-08T23:58:37.792Z,66.80
